Misterton, United Kingdom
Current Conditions -  °F | °C
As of 5:50 AM on Friday 28 Nov 2014 (Local Time) from EGCN Reporting Station
Haze Haze  
Wind Chill: 10°   Ceiling: 2500
Heat Index: 10°   Visibility: 3mi
Dew Point:   Wind: 5mph
Humidity: 94%   Direction: 90°E
Pressure: 29.68"   Gusts: NA
Location:  53.45°N, 0.85°W
Report Text: EGCN 280550Z 09004KT 5000 BR FEW004 OVC025 10/09 Q1005
Loading
Personal Weather Stations






























Interactive Weather Map New forecast layout! Learn more

10-Day Weather Forecast

Advertisements
Track Severe Weather on mobile